Flight Track Log - Related Links

Times and Time Zones

All times are in EDT time to prevent confusion due to time zone crossing. See the UAL4108 flight status page for this flight to view local times or setup timezone preferences in your user account.


Time Position Orientation Groundspeed Altitude Reporting Facility
EDT Latitude Longitude Course Direction KTS MPH feet Rate Location/Type
Sat 07:18:39 AM 34.7156 -92.2494 193° South 162 186 1,000  Level Memphis Center
Sat 07:19:46 AM 34.6594 -92.2458 177° South 211 243 3,600 2,407 Climbing Memphis Center
Sat 07:21:00 AM 34.4875 -92.3933 190° South  Level Estimated
Sat 07:21:41 AM 34.5283 -92.2100 167° South 279 321 8,300  Level Memphis Center
Sat 07:22:00 AM 34.3982 -92.3619 164° South  Level FlightAware Approximate
Sat 07:22:41 AM 34.4425 -92.2258 189° South 291 335 11,100  Level Memphis Center
Sat 07:23:00 AM 34.3181 -92.4191 193° South  Level Estimated
Sat 07:23:41 AM 34.3506 -92.2414 188° South 314 361 12,600  Level Memphis Center
Sat 07:24:41 AM 34.2564 -92.2569 188° South 337 388 14,800 1,950 Climbing Memphis Center
Sat 07:25:41 AM 34.1558 -92.2772 189° South 353 406 16,500 1,550 Climbing Memphis Center
Sat 07:26:41 AM 34.0469 -92.3025 191° South 360 414 17,900 1,500 Climbing Memphis Center
Sat 07:27:41 AM 33.9425 -92.3228 189° South 369 425 19,500 1,800 Climbing Memphis Center
Sat 07:28:41 AM 33.8419 -92.3406 188° South 375 432 21,500 1,271 Climbing Memphis Center
Sat 07:29:39 AM 33.7375 -92.3558 187° South 374 430 22,000 254 Climbing Fort Worth Center
Sat 07:30:39 AM 33.6236 -92.3772 189° South 410 472 22,000  Level Fort Worth Center
Sat 07:31:39 AM 33.5036 -92.3992 189° South 432 497 22,000  Level Fort Worth Center
Sat 07:32:39 AM 33.3875 -92.4206 189° South 432 497 22,000  Level Fort Worth Center
Sat 07:33:39 AM 33.2672 -92.4422 189° South 432 497 22,000  Level Fort Worth Center
Sat 07:34:39 AM 33.1472 -92.4639 189° South 437 503 22,000  Level Fort Worth Center
Sat 07:35:39 AM 33.0292 -92.4878 190° South 437 503 22,000  Level Fort Worth Center
Sat 07:36:39 AM 32.9131 -92.5067 188° South 443 510 22,000  Level Fort Worth Center
Sat 07:37:39 AM 32.7928 -92.5281 189° South 443 510 22,000  Level Fort Worth Center
Sat 07:38:39 AM 32.6725 -92.5494 189° South 443 510 22,000  Level Fort Worth Center
Sat 07:40:22 AM 32.4675 -92.5894 189° South 436 502 22,000  Level Houston Center
Sat 07:41:22 AM 32.3486 -92.6097 188° South 434 499 22,000  Level Houston Center
Sat 07:42:23 AM 32.2286 -92.6308 188° South 434 499 22,000  Level Houston Center
Sat 07:43:23 AM 32.1100 -92.6528 189° South 432 497 22,000  Level Houston Center
Sat 07:44:24 AM 31.9919 -92.6756 189° South 432 497 22,000  Level Houston Center
Sat 07:45:25 AM 31.8961 -92.7536 215° Southwest 421 484 22,000  Level Houston Center
Sat 07:46:25 AM 31.8053 -92.8403 219° Southwest 422 486 22,000  Level Houston Center
Sat 07:47:26 AM 31.7156 -92.9275 220° Southwest 421 484 22,000  Level Houston Center
Sat 07:48:26 AM 31.6247 -93.0142 219° Southwest 423 487 22,000  Level Houston Center
Sat 07:49:27 AM 31.5344 -93.1008 219° Southwest 423 487 22,000  Level Houston Center
Sat 07:50:28 AM 31.4453 -93.1872 220° Southwest 422 486 22,000  Level Houston Center
Sat 07:51:28 AM 31.3386 -93.2889 219° Southwest 414 476 22,000  Level Houston Center
Sat 07:52:29 AM 31.2600 -93.3619 218° Southwest 416 479 22,000  Level Houston Center
Sat 07:53:29 AM 31.1706 -93.4494 220° Southwest 421 484 22,000  Level Houston Center
Sat 07:54:30 AM 31.0794 -93.5353 219° Southwest 423 487 22,000  Level Houston Center
Sat 07:55:31 AM 30.9883 -93.6214 219° Southwest 423 487 22,000  Level Houston Center
Sat 07:56:31 AM 30.8964 -93.7081 219° Southwest 427 491 22,000  Level Houston Center
Sat 07:57:32 AM 30.7875 -93.8111 219° Southwest 423 487 22,000  Level Houston Center
Sat 07:58:33 AM 30.6961 -93.8981 219° Southwest 426 490 22,000 -99 Level Houston Center
Sat 07:59:33 AM 30.6036 -93.9847 219° Southwest 429 494 21,800 -1,091 Descending Houston Center
Sat 08:00:23 AM 30.5269 -94.0567 219° Southwest 414 476 20,000 -2,348 Descending Houston Center
Sat 08:00:42 AM 30.4997 -94.0797 216° Southwest 398 458 19,100 -2,500 Descending Houston Center
Sat 08:01:35 AM 30.4356 -94.1414 220° Southwest 378 435 17,000 -2,579 Descending Houston Center
Sat 08:02:36 AM 30.3578 -94.2150 219° Southwest 366 421 14,200 -2,479 Descending Houston Center
Sat 08:03:36 AM 30.3006 -94.3111 235° Southwest 367 422 12,000 -1,091 Descending Houston Center
Sat 08:04:37 AM 30.2519 -94.4078 240° Southwest 355 409 12,000 -246 Level Houston Center
Sat 08:05:38 AM 30.1997 -94.5094 239° Southwest 351 404 11,500 -843 Descending Houston Center
Sat 08:06:38 AM 30.1569 -94.5906 239° Southwest 308 354 10,300 -1,537 Descending Houston Center
Sat 08:07:39 AM 30.1211 -94.6703 243° Southwest 283 326 8,400 -1,820 Descending Houston Center
Sat 08:08:40 AM 30.1006 -94.7539 254° West 273 314 6,600 -1,721 Descending Houston Center
Sat 08:09:41 AM 30.0769 -94.8369 252° West 273 314 4,900 -1,279 Descending Houston Center
Sat 08:10:42 AM 30.0539 -94.9231 253° West 280 322 4,000 -492 Descending Houston Center
Sat 08:11:43 AM 30.0317 -95.0081 253° West 279 321 3,900 -443 Descending Houston Center
Sat 08:12:44 AM 30.0072 -95.1089 254° West 273 314 3,100 -787 Descending Houston Center

Login

Don't have an account? Register now (free) for customized features, flight alerts, and more!